logo dgac
Viernes 01 de Julio del 2022
Buscar por aerodromo o helipuerto
Ingrese nombre de aeródromo, localidad o designador OACI:
TAF: TAF SCIP 011030Z 0112/0212 02004KT 9999 SCT020 BKN040 TX22/0119Z TN18/0209Z BECMG 0116/0118 09010KT TEMPO 0118/0203 5000 -SHRA SCT025 BKN035 OVC050 BECMG 0204/0206 09020KT 4000 SHRA BKN015 OVC020
TAF del 01/07/2022 a las 10:30 UTC
Para mayor información visite www.meteochile.cl
Período de validez: desde el 01 a las 12:00 UTC hasta el 02 a las 12:00 UTC
Viento: dirección 020 grados, velocidad 4 nudos
Visibilidad: 10 km o más
Nubes: Nubosidad parcial a 2000 pies sobre el nivel del aeródromo
Nubes: Nublado a 4000 pies sobre el nivel del aeródromo
Temperatura máxima: 22ºC el 01 a las 19:00 UTC
Temperatura mínima: 18ºC el 02 a las 09:00 UTC
Se espera un cambio entre las 16:00 UTC del 01 y las 18:00 UTC del 01, :
Viento: dirección 090 grados, velocidad 10 nudos
Se espera en forma temporal entre las 18:00 UTC del 01 y las 03:00 UTC del 02:
Visibilidad: 5000 metros
Débil ChubascosLluvia
Nubes: Nubosidad parcial a 2500 pies sobre el nivel del aeródromo
Nubes: Nublado a 3500 pies sobre el nivel del aeródromo
Nubes: Cubierto a 5000 pies sobre el nivel del aeródromo
Se espera un cambio entre las 04:00 UTC del 02 y las 06:00 UTC del 02, :
Viento: dirección 090 grados, velocidad 20 nudos
Visibilidad: 4000 metros
ChubascosLluvia
Nubes: Nublado a 1500 pies sobre el nivel del aeródromo
Nubes: Cubierto a 2000 pies sobre el nivel del aeródromo